sensor_id;sensor_type;location;lat;lon;timestamp;P1;durP1;ratioP1;P2;durP2;ratioP2
28920;SDS011;16035;53.594;9.952;2023-12-14T00:01:53;3.00;;;1.30;;
28920;SDS011;16035;53.594;9.952;2023-12-14T00:03:53;1.70;;;1.27;;
28920;SDS011;16035;53.594;9.952;2023-12-14T00:05:54;3.20;;;1.20;;
28920;SDS011;16035;53.594;9.952;2023-12-14T00:07:54;2.00;;;1.10;;
28920;SDS011;16035;53.594;9.952;2023-12-14T00:09:54;1.27;;;1.00;;
28920;SDS011;16035;53.594;9.952;2023-12-14T00:11:54;1.30;;;1.10;;
28920;SDS011;16035;53.594;9.952;2023-12-14T00:13:55;6.17;;;1.43;;
28920;SDS011;16035;53.594;9.952;2023-12-14T00:15:55;4.13;;;1.60;;
28920;SDS011;16035;53.594;9.952;2023-12-14T00:17:56;3.17;;;1.33;;
28920;SDS011;16035;53.594;9.952;2023-12-14T00:19:56;3.70;;;1.27;;
28920;SDS011;16035;53.594;9.952;2023-12-14T00:21:56;2.17;;;1.37;;
28920;SDS011;16035;53.594;9.952;2023-12-14T00:23:57;2.70;;;1.50;;
28920;SDS011;16035;53.594;9.952;2023-12-14T00:25:57;3.57;;;1.47;;
28920;SDS011;16035;53.594;9.952;2023-12-14T00:27:57;2.70;;;1.20;;
28920;SDS011;16035;53.594;9.952;2023-12-14T00:29:58;1.87;;;1.23;;
28920;SDS011;16035;53.594;9.952;2023-12-14T00:31:58;5.10;;;1.40;;
28920;SDS011;16035;53.594;9.952;2023-12-14T00:33:58;2.80;;;1.47;;
28920;SDS011;16035;53.594;9.952;2023-12-14T00:35:58;2.47;;;0.93;;
28920;SDS011;16035;53.594;9.952;2023-12-14T00:37:59;6.13;;;1.40;;
28920;SDS011;16035;53.594;9.952;2023-12-14T00:39:59;3.17;;;0.97;;
28920;SDS011;16035;53.594;9.952;2023-12-14T00:41:59;2.80;;;1.30;;
28920;SDS011;16035;53.594;9.952;2023-12-14T00:44:00;3.27;;;1.00;;
28920;SDS011;16035;53.594;9.952;2023-12-14T00:46:00;4.70;;;1.23;;
28920;SDS011;16035;53.594;9.952;2023-12-14T00:48:00;3.37;;;1.40;;
28920;SDS011;16035;53.594;9.952;2023-12-14T00:50:01;2.73;;;1.00;;
28920;SDS011;16035;53.594;9.952;2023-12-14T00:52:01;3.33;;;1.03;;
28920;SDS011;16035;53.594;9.952;2023-12-14T00:54:02;4.43;;;1.33;;
28920;SDS011;16035;53.594;9.952;2023-12-14T00:56:02;3.47;;;0.90;;
28920;SDS011;16035;53.594;9.952;2023-12-14T00:58:03;4.77;;;1.63;;
28920;SDS011;16035;53.594;9.952;2023-12-14T01:00:03;3.57;;;0.97;;
28920;SDS011;16035;53.594;9.952;2023-12-14T01:02:04;2.13;;;0.88;;
28920;SDS011;16035;53.594;9.952;2023-12-14T01:04:04;1.50;;;0.83;;
28920;SDS011;16035;53.594;9.952;2023-12-14T01:06:05;4.17;;;0.93;;
28920;SDS011;16035;53.594;9.952;2023-12-14T01:10:07;3.88;;;1.23;;
28920;SDS011;16035;53.594;9.952;2023-12-14T01:12:07;3.70;;;1.10;;
28920;SDS011;16035;53.594;9.952;2023-12-14T01:14:08;2.83;;;0.87;;
28920;SDS011;16035;53.594;9.952;2023-12-14T01:16:08;3.97;;;1.03;;
28920;SDS011;16035;53.594;9.952;2023-12-14T01:18:08;5.93;;;0.97;;
28920;SDS011;16035;53.594;9.952;2023-12-14T01:20:09;4.00;;;1.20;;
28920;SDS011;16035;53.594;9.952;2023-12-14T01:22:10;4.63;;;1.00;;
28920;SDS011;16035;53.594;9.952;2023-12-14T01:24:10;3.07;;;1.20;;
28920;SDS011;16035;53.594;9.952;2023-12-14T01:26:11;1.73;;;0.70;;
28920;SDS011;16035;53.594;9.952;2023-12-14T01:28:11;1.43;;;0.77;;
28920;SDS011;16035;53.594;9.952;2023-12-14T01:30:13;4.45;;;0.90;;
28920;SDS011;16035;53.594;9.952;2023-12-14T01:32:14;23.80;;;10.97;;
28920;SDS011;16035;53.594;9.952;2023-12-14T01:34:14;41.20;;;19.80;;
28920;SDS011;16035;53.594;9.952;2023-12-14T01:36:25;10.73;;;6.45;;
28920;SDS011;16035;53.594;9.952;2023-12-14T01:38:26;4.20;;;2.13;;
28920;SDS011;16035;53.594;9.952;2023-12-14T01:40:26;3.50;;;0.80;;
28920;SDS011;16035;53.594;9.952;2023-12-14T01:42:26;5.37;;;1.10;;
28920;SDS011;16035;53.594;9.952;2023-12-14T01:44:27;2.80;;;0.80;;
28920;SDS011;16035;53.594;9.952;2023-12-14T01:46:27;3.67;;;0.90;;
28920;SDS011;16035;53.594;9.952;2023-12-14T01:48:28;5.67;;;0.97;;
28920;SDS011;16035;53.594;9.952;2023-12-14T01:50:28;2.33;;;0.97;;
28920;SDS011;16035;53.594;9.952;2023-12-14T01:52:28;5.47;;;1.30;;
28920;SDS011;16035;53.594;9.952;2023-12-14T01:54:29;3.30;;;0.97;;
28920;SDS011;16035;53.594;9.952;2023-12-14T01:56:29;4.20;;;0.83;;
28920;SDS011;16035;53.594;9.952;2023-12-14T01:58:29;4.97;;;1.10;;
28920;SDS011;16035;53.594;9.952;2023-12-14T02:02:52;5.85;;;1.10;;
28920;SDS011;16035;53.594;9.952;2023-12-14T02:04:53;3.73;;;1.10;;
28920;SDS011;16035;53.594;9.952;2023-12-14T02:06:53;2.87;;;1.10;;
28920;SDS011;16035;53.594;9.952;2023-12-14T02:08:53;1.93;;;0.70;;
28920;SDS011;16035;53.594;9.952;2023-12-14T02:10:54;2.60;;;0.97;;
28920;SDS011;16035;53.594;9.952;2023-12-14T02:12:55;1.00;;;0.70;;
28920;SDS011;16035;53.594;9.952;2023-12-14T02:14:56;3.90;;;1.10;;
28920;SDS011;16035;53.594;9.952;2023-12-14T02:16:56;2.80;;;1.20;;
28920;SDS011;16035;53.594;9.952;2023-12-14T02:18:57;2.23;;;0.57;;
28920;SDS011;16035;53.594;9.952;2023-12-14T02:20:57;3.63;;;1.23;;
28920;SDS011;16035;53.594;9.952;2023-12-14T02:22:57;2.70;;;0.90;;
28920;SDS011;16035;53.594;9.952;2023-12-14T02:24:58;2.77;;;0.80;;
28920;SDS011;16035;53.594;9.952;2023-12-14T02:26:59;4.33;;;1.30;;
28920;SDS011;16035;53.594;9.952;2023-12-14T02:29:00;3.47;;;1.08;;
28920;SDS011;16035;53.594;9.952;2023-12-14T02:31:00;3.17;;;1.20;;
28920;SDS011;16035;53.594;9.952;2023-12-14T02:33:00;3.23;;;0.77;;
28920;SDS011;16035;53.594;9.952;2023-12-14T02:35:01;5.83;;;1.10;;
28920;SDS011;16035;53.594;9.952;2023-12-14T02:37:02;4.35;;;1.20;;
28920;SDS011;16035;53.594;9.952;2023-12-14T02:39:02;2.17;;;1.00;;
28920;SDS011;16035;53.594;9.952;2023-12-14T02:41:03;2.97;;;1.30;;
28920;SDS011;16035;53.594;9.952;2023-12-14T02:43:03;3.93;;;0.90;;
28920;SDS011;16035;53.594;9.952;2023-12-14T02:45:04;3.70;;;1.17;;
28920;SDS011;16035;53.594;9.952;2023-12-14T02:47:04;5.82;;;1.52;;
28920;SDS011;16035;53.594;9.952;2023-12-14T02:49:05;2.97;;;0.90;;
28920;SDS011;16035;53.594;9.952;2023-12-14T02:51:05;2.03;;;1.10;;
28920;SDS011;16035;53.594;9.952;2023-12-14T02:53:06;1.40;;;0.80;;
28920;SDS011;16035;53.594;9.952;2023-12-14T02:55:06;2.30;;;0.90;;
28920;SDS011;16035;53.594;9.952;2023-12-14T02:57:07;2.93;;;1.13;;
28920;SDS011;16035;53.594;9.952;2023-12-14T02:59:07;6.53;;;1.23;;
28920;SDS011;16035;53.594;9.952;2023-12-14T03:01:07;2.87;;;1.20;;
28920;SDS011;16035;53.594;9.952;2023-12-14T03:03:08;2.80;;;2.30;;
28920;SDS011;16035;53.594;9.952;2023-12-14T03:05:08;4.50;;;0.93;;
28920;SDS011;16035;53.594;9.952;2023-12-14T03:09:10;3.70;;;1.07;;
28920;SDS011;16035;53.594;9.952;2023-12-14T03:11:10;4.77;;;1.40;;
28920;SDS011;16035;53.594;9.952;2023-12-14T03:13:10;2.87;;;1.37;;
28920;SDS011;16035;53.594;9.952;2023-12-14T03:15:11;4.90;;;1.00;;
28920;SDS011;16035;53.594;9.952;2023-12-14T03:17:11;5.00;;;1.60;;
28920;SDS011;16035;53.594;9.952;2023-12-14T03:19:15;5.38;;;1.17;;
28920;SDS011;16035;53.594;9.952;2023-12-14T03:21:16;7.82;;;1.50;;
28920;SDS011;16035;53.594;9.952;2023-12-14T03:23:16;2.43;;;1.10;;
28920;SDS011;16035;53.594;9.952;2023-12-14T03:25:16;1.10;;;1.00;;
28920;SDS011;16035;53.594;9.952;2023-12-14T03:27:17;4.40;;;1.97;;
28920;SDS011;16035;53.594;9.952;2023-12-14T03:29:18;2.70;;;1.23;;
28920;SDS011;16035;53.594;9.952;2023-12-14T03:33:19;6.60;;;1.40;;
28920;SDS011;16035;53.594;9.952;2023-12-14T03:35:19;4.00;;;1.00;;
28920;SDS011;16035;53.594;9.952;2023-12-14T03:37:19;4.57;;;1.00;;
28920;SDS011;16035;53.594;9.952;2023-12-14T03:39:20;2.77;;;1.23;;
28920;SDS011;16035;53.594;9.952;2023-12-14T03:41:20;3.23;;;1.00;;
28920;SDS011;16035;53.594;9.952;2023-12-14T03:43:20;4.30;;;0.97;;
28920;SDS011;16035;53.594;9.952;2023-12-14T03:45:21;3.43;;;1.10;;
28920;SDS011;16035;53.594;9.952;2023-12-14T03:47:21;3.50;;;0.87;;
28920;SDS011;16035;53.594;9.952;2023-12-14T03:49:21;1.13;;;0.90;;
28920;SDS011;16035;53.594;9.952;2023-12-14T03:51:22;3.00;;;1.23;;
28920;SDS011;16035;53.594;9.952;2023-12-14T03:53:22;1.67;;;1.10;;
28920;SDS011;16035;53.594;9.952;2023-12-14T03:55:22;2.00;;;0.90;;
28920;SDS011;16035;53.594;9.952;2023-12-14T03:57:23;3.60;;;1.10;;
28920;SDS011;16035;53.594;9.952;2023-12-14T03:59:23;5.77;;;2.70;;
28920;SDS011;16035;53.594;9.952;2023-12-14T04:01:23;3.43;;;0.93;;
28920;SDS011;16035;53.594;9.952;2023-12-14T04:03:24;3.07;;;1.37;;
28920;SDS011;16035;53.594;9.952;2023-12-14T04:05:24;3.03;;;1.30;;
28920;SDS011;16035;53.594;9.952;2023-12-14T04:07:24;3.30;;;1.17;;
28920;SDS011;16035;53.594;9.952;2023-12-14T04:09:25;2.63;;;1.30;;
28920;SDS011;16035;53.594;9.952;2023-12-14T04:11:25;4.17;;;1.03;;
28920;SDS011;16035;53.594;9.952;2023-12-14T04:13:25;1.17;;;0.70;;
28920;SDS011;16035;53.594;9.952;2023-12-14T04:15:26;3.17;;;1.07;;
28920;SDS011;16035;53.594;9.952;2023-12-14T04:17:26;1.97;;;0.87;;
28920;SDS011;16035;53.594;9.952;2023-12-14T04:19:26;7.10;;;1.73;;
28920;SDS011;16035;53.594;9.952;2023-12-14T04:21:27;4.43;;;1.20;;
28920;SDS011;16035;53.594;9.952;2023-12-14T04:23:27;1.87;;;1.00;;
28920;SDS011;16035;53.594;9.952;2023-12-14T04:25:27;3.60;;;1.13;;
28920;SDS011;16035;53.594;9.952;2023-12-14T04:27:28;5.73;;;1.30;;
28920;SDS011;16035;53.594;9.952;2023-12-14T04:29:29;4.78;;;1.63;;
28920;SDS011;16035;53.594;9.952;2023-12-14T04:31:30;3.73;;;1.53;;
28920;SDS011;16035;53.594;9.952;2023-12-14T04:33:30;3.93;;;1.30;;
28920;SDS011;16035;53.594;9.952;2023-12-14T04:35:31;2.10;;;1.23;;
28920;SDS011;16035;53.594;9.952;2023-12-14T04:37:36;3.25;;;1.70;;
28920;SDS011;16035;53.594;9.952;2023-12-14T04:39:36;4.17;;;2.10;;
28920;SDS011;16035;53.594;9.952;2023-12-14T04:41:37;3.30;;;1.30;;
28920;SDS011;16035;53.594;9.952;2023-12-14T04:43:37;5.97;;;1.50;;
28920;SDS011;16035;53.594;9.952;2023-12-14T04:45:37;3.23;;;1.60;;
28920;SDS011;16035;53.594;9.952;2023-12-14T04:47:38;4.43;;;1.33;;
28920;SDS011;16035;53.594;9.952;2023-12-14T04:49:38;5.03;;;1.83;;
28920;SDS011;16035;53.594;9.952;2023-12-14T04:51:39;6.33;;;1.93;;
28920;SDS011;16035;53.594;9.952;2023-12-14T04:53:39;2.97;;;1.40;;
28920;SDS011;16035;53.594;9.952;2023-12-14T04:55:40;3.90;;;1.73;;
28920;SDS011;16035;53.594;9.952;2023-12-14T04:57:40;8.13;;;1.87;;
28920;SDS011;16035;53.594;9.952;2023-12-14T04:59:41;6.33;;;1.80;;
28920;SDS011;16035;53.594;9.952;2023-12-14T05:03:42;7.30;;;1.70;;
28920;SDS011;16035;53.594;9.952;2023-12-14T05:05:42;5.20;;;1.57;;
28920;SDS011;16035;53.594;9.952;2023-12-14T05:07:43;5.57;;;2.13;;
28920;SDS011;16035;53.594;9.952;2023-12-14T05:09:43;9.97;;;2.20;;
28920;SDS011;16035;53.594;9.952;2023-12-14T05:11:43;4.17;;;1.97;;
28920;SDS011;16035;53.594;9.952;2023-12-14T05:13:44;3.43;;;1.57;;
28920;SDS011;16035;53.594;9.952;2023-12-14T05:15:44;5.03;;;2.30;;
28920;SDS011;16035;53.594;9.952;2023-12-14T05:17:45;3.33;;;1.57;;
28920;SDS011;16035;53.594;9.952;2023-12-14T05:19:45;5.93;;;2.05;;
28920;SDS011;16035;53.594;9.952;2023-12-14T05:21:46;6.27;;;2.33;;
28920;SDS011;16035;53.594;9.952;2023-12-14T05:23:47;7.80;;;2.15;;
28920;SDS011;16035;53.594;9.952;2023-12-14T05:25:47;6.67;;;2.40;;
28920;SDS011;16035;53.594;9.952;2023-12-14T05:27:47;3.97;;;2.20;;
28920;SDS011;16035;53.594;9.952;2023-12-14T05:29:48;5.97;;;2.27;;
28920;SDS011;16035;53.594;9.952;2023-12-14T05:31:48;4.57;;;1.83;;
28920;SDS011;16035;53.594;9.952;2023-12-14T05:33:48;5.27;;;2.07;;
28920;SDS011;16035;53.594;9.952;2023-12-14T05:35:49;7.27;;;2.57;;
28920;SDS011;16035;53.594;9.952;2023-12-14T05:37:49;5.80;;;1.50;;
28920;SDS011;16035;53.594;9.952;2023-12-14T05:39:49;6.03;;;2.07;;
28920;SDS011;16035;53.594;9.952;2023-12-14T05:41:50;5.83;;;2.33;;
28920;SDS011;16035;53.594;9.952;2023-12-14T05:43:50;3.03;;;1.50;;
28920;SDS011;16035;53.594;9.952;2023-12-14T05:45:50;5.37;;;2.53;;
28920;SDS011;16035;53.594;9.952;2023-12-14T05:47:51;5.30;;;2.53;;
28920;SDS011;16035;53.594;9.952;2023-12-14T05:49:51;8.50;;;2.17;;
28920;SDS011;16035;53.594;9.952;2023-12-14T05:51:51;6.07;;;2.73;;
28920;SDS011;16035;53.594;9.952;2023-12-14T05:53:52;5.20;;;2.67;;
28920;SDS011;16035;53.594;9.952;2023-12-14T05:55:52;3.57;;;2.30;;
28920;SDS011;16035;53.594;9.952;2023-12-14T05:57:52;5.63;;;2.63;;
28920;SDS011;16035;53.594;9.952;2023-12-14T05:59:54;3.65;;;1.83;;
28920;SDS011;16035;53.594;9.952;2023-12-14T06:02:00;7.73;;;3.03;;
28920;SDS011;16035;53.594;9.952;2023-12-14T06:04:01;4.68;;;2.60;;
28920;SDS011;16035;53.594;9.952;2023-12-14T06:06:02;6.78;;;2.63;;
28920;SDS011;16035;53.594;9.952;2023-12-14T06:08:02;9.20;;;3.27;;
28920;SDS011;16035;53.594;9.952;2023-12-14T06:10:03;6.47;;;2.37;;
28920;SDS011;16035;53.594;9.952;2023-12-14T06:12:04;8.73;;;2.77;;
28920;SDS011;16035;53.594;9.952;2023-12-14T06:14:04;4.78;;;2.60;;
28920;SDS011;16035;53.594;9.952;2023-12-14T06:16:05;10.00;;;2.80;;
28920;SDS011;16035;53.594;9.952;2023-12-14T06:20:07;5.35;;;2.83;;
28920;SDS011;16035;53.594;9.952;2023-12-14T06:24:09;7.70;;;2.88;;
28920;SDS011;16035;53.594;9.952;2023-12-14T06:26:09;8.13;;;3.00;;
28920;SDS011;16035;53.594;9.952;2023-12-14T06:28:10;6.77;;;3.10;;
28920;SDS011;16035;53.594;9.952;2023-12-14T06:30:10;5.10;;;2.67;;
28920;SDS011;16035;53.594;9.952;2023-12-14T06:34:12;6.65;;;2.53;;
28920;SDS011;16035;53.594;9.952;2023-12-14T06:36:12;6.73;;;2.90;;
28920;SDS011;16035;53.594;9.952;2023-12-14T06:38:12;5.43;;;3.17;;
28920;SDS011;16035;53.594;9.952;2023-12-14T06:40:13;6.83;;;3.03;;
28920;SDS011;16035;53.594;9.952;2023-12-14T06:42:14;6.70;;;2.75;;
28920;SDS011;16035;53.594;9.952;2023-12-14T06:44:14;8.53;;;2.57;;
28920;SDS011;16035;53.594;9.952;2023-12-14T06:46:14;4.57;;;2.53;;
28920;SDS011;16035;53.594;9.952;2023-12-14T06:48:15;6.87;;;2.80;;
28920;SDS011;16035;53.594;9.952;2023-12-14T06:50:15;5.67;;;2.53;;
28920;SDS011;16035;53.594;9.952;2023-12-14T06:52:16;5.47;;;3.10;;
28920;SDS011;16035;53.594;9.952;2023-12-14T06:54:16;6.83;;;2.93;;
28920;SDS011;16035;53.594;9.952;2023-12-14T06:56:16;5.87;;;2.80;;
28920;SDS011;16035;53.594;9.952;2023-12-14T06:58:17;6.10;;;3.07;;
28920;SDS011;16035;53.594;9.952;2023-12-14T07:00:17;7.70;;;3.53;;
28920;SDS011;16035;53.594;9.952;2023-12-14T07:02:18;4.40;;;1.73;;
28920;SDS011;16035;53.594;9.952;2023-12-14T07:04:18;6.10;;;3.10;;
28920;SDS011;16035;53.594;9.952;2023-12-14T07:06:19;6.07;;;3.17;;
28920;SDS011;16035;53.594;9.952;2023-12-14T07:10:21;7.03;;;3.30;;
28920;SDS011;16035;53.594;9.952;2023-12-14T07:12:22;7.97;;;3.28;;
28920;SDS011;16035;53.594;9.952;2023-12-14T07:14:22;6.70;;;3.27;;
28920;SDS011;16035;53.594;9.952;2023-12-14T07:16:23;6.55;;;3.20;;
28920;SDS011;16035;53.594;9.952;2023-12-14T07:18:23;6.90;;;3.50;;
28920;SDS011;16035;53.594;9.952;2023-12-14T07:20:24;6.07;;;3.20;;
28920;SDS011;16035;53.594;9.952;2023-12-14T07:24:25;9.60;;;3.60;;
28920;SDS011;16035;53.594;9.952;2023-12-14T07:26:25;7.20;;;3.60;;
28920;SDS011;16035;53.594;9.952;2023-12-14T07:28:26;10.83;;;3.67;;
28920;SDS011;16035;53.594;9.952;2023-12-14T07:30:26;5.73;;;3.07;;
28920;SDS011;16035;53.594;9.952;2023-12-14T07:32:26;8.00;;;3.70;;
28920;SDS011;16035;53.594;9.952;2023-12-14T07:34:27;6.00;;;3.30;;
28920;SDS011;16035;53.594;9.952;2023-12-14T07:36:28;8.88;;;3.70;;
28920;SDS011;16035;53.594;9.952;2023-12-14T07:38:28;11.37;;;3.90;;
28920;SDS011;16035;53.594;9.952;2023-12-14T07:40:29;9.83;;;3.80;;
28920;SDS011;16035;53.594;9.952;2023-12-14T07:42:29;5.63;;;3.43;;
28920;SDS011;16035;53.594;9.952;2023-12-14T07:44:29;10.50;;;4.10;;
28920;SDS011;16035;53.594;9.952;2023-12-14T07:46:30;8.17;;;3.87;;
28920;SDS011;16035;53.594;9.952;2023-12-14T07:48:30;8.90;;;4.23;;
28920;SDS011;16035;53.594;9.952;2023-12-14T07:50:30;7.13;;;3.37;;
28920;SDS011;16035;53.594;9.952;2023-12-14T07:52:31;9.00;;;3.67;;
28920;SDS011;16035;53.594;9.952;2023-12-14T07:54:31;6.70;;;3.50;;
28920;SDS011;16035;53.594;9.952;2023-12-14T07:56:31;6.53;;;4.00;;
28920;SDS011;16035;53.594;9.952;2023-12-14T07:58:33;12.30;;;4.35;;
28920;SDS011;16035;53.594;9.952;2023-12-14T08:00:33;5.60;;;3.20;;
28920;SDS011;16035;53.594;9.952;2023-12-14T08:02:34;7.72;;;3.90;;
28920;SDS011;16035;53.594;9.952;2023-12-14T08:04:34;7.10;;;3.27;;
28920;SDS011;16035;53.594;9.952;2023-12-14T08:06:35;7.87;;;4.07;;
28920;SDS011;16035;53.594;9.952;2023-12-14T08:08:35;9.00;;;3.47;;
28920;SDS011;16035;53.594;9.952;2023-12-14T08:10:37;6.75;;;3.30;;
28920;SDS011;16035;53.594;9.952;2023-12-14T08:12:38;8.97;;;4.67;;
28920;SDS011;16035;53.594;9.952;2023-12-14T08:14:38;6.50;;;4.27;;
28920;SDS011;16035;53.594;9.952;2023-12-14T08:16:43;5.55;;;3.58;;
28920;SDS011;16035;53.594;9.952;2023-12-14T08:18:43;9.07;;;4.10;;
28920;SDS011;16035;53.594;9.952;2023-12-14T08:20:48;9.20;;;3.67;;
28920;SDS011;16035;53.594;9.952;2023-12-14T08:22:48;7.60;;;3.57;;
28920;SDS011;16035;53.594;9.952;2023-12-14T08:24:49;7.27;;;3.70;;
28920;SDS011;16035;53.594;9.952;2023-12-14T08:26:49;6.00;;;3.50;;
28920;SDS011;16035;53.594;9.952;2023-12-14T08:28:49;6.87;;;3.73;;
28920;SDS011;16035;53.594;9.952;2023-12-14T08:30:50;6.00;;;3.00;;
28920;SDS011;16035;53.594;9.952;2023-12-14T08:32:51;6.95;;;3.67;;
28920;SDS011;16035;53.594;9.952;2023-12-14T08:34:51;8.70;;;3.63;;
28920;SDS011;16035;53.594;9.952;2023-12-14T08:36:52;8.15;;;2.95;;
28920;SDS011;16035;53.594;9.952;2023-12-14T08:38:53;5.20;;;3.50;;
28920;SDS011;16035;53.594;9.952;2023-12-14T08:40:54;8.25;;;3.15;;
28920;SDS011;16035;53.594;9.952;2023-12-14T08:42:54;6.23;;;3.50;;
28920;SDS011;16035;53.594;9.952;2023-12-14T08:44:55;4.87;;;2.93;;
28920;SDS011;16035;53.594;9.952;2023-12-14T08:46:55;10.10;;;5.10;;
28920;SDS011;16035;53.594;9.952;2023-12-14T08:48:55;6.50;;;2.80;;
28920;SDS011;16035;53.594;9.952;2023-12-14T08:50:56;8.90;;;3.33;;
28920;SDS011;16035;53.594;9.952;2023-12-14T08:52:56;5.67;;;3.33;;
28920;SDS011;16035;53.594;9.952;2023-12-14T08:54:58;3.97;;;2.38;;
28920;SDS011;16035;53.594;9.952;2023-12-14T08:56:59;3.87;;;2.97;;
28920;SDS011;16035;53.594;9.952;2023-12-14T08:59:01;5.97;;;3.08;;
28920;SDS011;16035;53.594;9.952;2023-12-14T09:01:03;6.50;;;3.50;;
28920;SDS011;16035;53.594;9.952;2023-12-14T09:03:04;8.00;;;3.30;;
28920;SDS011;16035;53.594;9.952;2023-12-14T09:05:04;4.80;;;2.50;;
28920;SDS011;16035;53.594;9.952;2023-12-14T09:07:06;6.78;;;2.88;;
28920;SDS011;16035;53.594;9.952;2023-12-14T09:09:06;3.20;;;2.50;;
28920;SDS011;16035;53.594;9.952;2023-12-14T09:11:06;6.13;;;2.87;;
28920;SDS011;16035;53.594;9.952;2023-12-14T09:13:07;6.47;;;2.90;;
28920;SDS011;16035;53.594;9.952;2023-12-14T09:15:07;5.17;;;2.97;;
28920;SDS011;16035;53.594;9.952;2023-12-14T09:17:08;5.83;;;2.90;;
28920;SDS011;16035;53.594;9.952;2023-12-14T09:19:08;8.97;;;2.87;;
28920;SDS011;16035;53.594;9.952;2023-12-14T09:21:08;6.63;;;3.47;;
28920;SDS011;16035;53.594;9.952;2023-12-14T09:23:09;4.57;;;2.90;;
28920;SDS011;16035;53.594;9.952;2023-12-14T09:25:09;3.57;;;2.50;;
28920;SDS011;16035;53.594;9.952;2023-12-14T09:27:09;4.40;;;2.70;;
28920;SDS011;16035;53.594;9.952;2023-12-14T09:29:10;5.40;;;3.20;;
28920;SDS011;16035;53.594;9.952;2023-12-14T09:31:10;6.90;;;2.53;;
28920;SDS011;16035;53.594;9.952;2023-12-14T09:33:11;5.33;;;3.10;;
28920;SDS011;16035;53.594;9.952;2023-12-14T09:35:11;7.50;;;3.80;;
28920;SDS011;16035;53.594;9.952;2023-12-14T09:37:11;4.73;;;3.03;;
28920;SDS011;16035;53.594;9.952;2023-12-14T09:39:14;6.70;;;3.33;;
28920;SDS011;16035;53.594;9.952;2023-12-14T09:41:15;5.50;;;3.35;;
28920;SDS011;16035;53.594;9.952;2023-12-14T09:43:15;3.97;;;3.30;;
28920;SDS011;16035;53.594;9.952;2023-12-14T09:45:19;8.30;;;3.37;;
28920;SDS011;16035;53.594;9.952;2023-12-14T09:47:23;5.50;;;3.00;;
28920;SDS011;16035;53.594;9.952;2023-12-14T09:49:25;3.47;;;2.28;;
28920;SDS011;16035;53.594;9.952;2023-12-14T09:51:29;7.10;;;3.13;;
28920;SDS011;16035;53.594;9.952;2023-12-14T09:53:29;5.80;;;3.10;;
28920;SDS011;16035;53.594;9.952;2023-12-14T09:55:30;7.63;;;3.33;;
28920;SDS011;16035;53.594;9.952;2023-12-14T09:57:31;6.90;;;2.85;;
28920;SDS011;16035;53.594;9.952;2023-12-14T09:59:31;5.50;;;3.70;;
28920;SDS011;16035;53.594;9.952;2023-12-14T10:01:32;5.77;;;3.37;;
28920;SDS011;16035;53.594;9.952;2023-12-14T10:03:32;5.33;;;2.97;;
28920;SDS011;16035;53.594;9.952;2023-12-14T10:05:33;5.57;;;3.40;;
28920;SDS011;16035;53.594;9.952;2023-12-14T10:07:33;6.53;;;3.30;;
28920;SDS011;16035;53.594;9.952;2023-12-14T10:09:34;6.10;;;3.03;;
28920;SDS011;16035;53.594;9.952;2023-12-14T10:11:36;6.07;;;3.55;;
28920;SDS011;16035;53.594;9.952;2023-12-14T10:13:37;6.63;;;2.93;;
28920;SDS011;16035;53.594;9.952;2023-12-14T10:15:42;5.47;;;3.13;;
28920;SDS011;16035;53.594;9.952;2023-12-14T10:17:42;5.85;;;3.05;;
28920;SDS011;16035;53.594;9.952;2023-12-14T10:19:43;5.47;;;3.10;;
28920;SDS011;16035;53.594;9.952;2023-12-14T10:23:46;8.95;;;3.08;;
28920;SDS011;16035;53.594;9.952;2023-12-14T10:25:47;6.17;;;3.03;;
28920;SDS011;16035;53.594;9.952;2023-12-14T10:27:47;8.40;;;2.90;;
28920;SDS011;16035;53.594;9.952;2023-12-14T10:29:48;4.22;;;3.00;;
28920;SDS011;16035;53.594;9.952;2023-12-14T10:31:50;5.22;;;2.33;;
28920;SDS011;16035;53.594;9.952;2023-12-14T10:33:51;9.57;;;3.08;;
28920;SDS011;16035;53.594;9.952;2023-12-14T10:35:52;4.53;;;2.73;;
28920;SDS011;16035;53.594;9.952;2023-12-14T10:37:52;5.63;;;2.97;;
28920;SDS011;16035;53.594;9.952;2023-12-14T10:39:55;7.97;;;3.08;;
28920;SDS011;16035;53.594;9.952;2023-12-14T10:43:58;3.47;;;2.27;;
28920;SDS011;16035;53.594;9.952;2023-12-14T10:46:00;6.85;;;3.05;;
28920;SDS011;16035;53.594;9.952;2023-12-14T10:48:02;7.95;;;2.45;;
28920;SDS011;16035;53.594;9.952;2023-12-14T10:50:03;6.00;;;2.72;;
28920;SDS011;16035;53.594;9.952;2023-12-14T10:52:06;7.45;;;2.60;;
28920;SDS011;16035;53.594;9.952;2023-12-14T10:54:07;6.95;;;3.20;;
28920;SDS011;16035;53.594;9.952;2023-12-14T10:56:09;3.92;;;2.67;;
28920;SDS011;16035;53.594;9.952;2023-12-14T10:58:11;5.13;;;2.60;;
28920;SDS011;16035;53.594;9.952;2023-12-14T11:00:12;4.43;;;2.75;;
28920;SDS011;16035;53.594;9.952;2023-12-14T11:02:17;3.45;;;2.22;;
28920;SDS011;16035;53.594;9.952;2023-12-14T11:04:17;3.53;;;1.87;;
28920;SDS011;16035;53.594;9.952;2023-12-14T11:06:25;4.20;;;2.63;;
28920;SDS011;16035;53.594;9.952;2023-12-14T11:08:30;5.97;;;2.97;;
28920;SDS011;16035;53.594;9.952;2023-12-14T11:12:51;5.47;;;2.92;;
28920;SDS011;16035;53.594;9.952;2023-12-14T11:15:00;8.35;;;2.85;;
28920;SDS011;16035;53.594;9.952;2023-12-14T11:17:07;8.80;;;3.73;;
28920;SDS011;16035;53.594;9.952;2023-12-14T11:21:22;7.18;;;3.30;;
28920;SDS011;16035;53.594;9.952;2023-12-14T11:25:25;9.30;;;3.43;;
28920;SDS011;16035;53.594;9.952;2023-12-14T11:27:27;5.70;;;3.17;;
28920;SDS011;16035;53.594;9.952;2023-12-14T11:29:29;12.65;;;3.60;;
28920;SDS011;16035;53.594;9.952;2023-12-14T11:31:30;6.32;;;3.50;;
28920;SDS011;16035;53.594;9.952;2023-12-14T11:33:31;6.80;;;3.20;;
28920;SDS011;16035;53.594;9.952;2023-12-14T11:35:32;7.32;;;3.25;;
28920;SDS011;16035;53.594;9.952;2023-12-14T11:37:33;7.60;;;3.50;;
28920;SDS011;16035;53.594;9.952;2023-12-14T11:39:35;5.63;;;3.00;;
28920;SDS011;16035;53.594;9.952;2023-12-14T11:41:37;6.50;;;2.70;;
28920;SDS011;16035;53.594;9.952;2023-12-14T11:45:43;6.55;;;3.30;;
28920;SDS011;16035;53.594;9.952;2023-12-14T11:47:43;5.33;;;3.10;;
28920;SDS011;16035;53.594;9.952;2023-12-14T11:49:44;5.97;;;2.37;;
28920;SDS011;16035;53.594;9.952;2023-12-14T11:51:47;6.07;;;3.23;;
28920;SDS011;16035;53.594;9.952;2023-12-14T11:53:47;6.88;;;3.08;;
28920;SDS011;16035;53.594;9.952;2023-12-14T11:55:50;5.25;;;2.67;;
28920;SDS011;16035;53.594;9.952;2023-12-14T11:57:51;5.88;;;3.00;;
28920;SDS011;16035;53.594;9.952;2023-12-14T11:59:53;7.07;;;3.17;;
28920;SDS011;16035;53.594;9.952;2023-12-14T12:01:57;7.37;;;3.80;;
28920;SDS011;16035;53.594;9.952;2023-12-14T12:04:03;7.10;;;3.15;;
28920;SDS011;16035;53.594;9.952;2023-12-14T12:06:08;8.88;;;3.80;;
28920;SDS011;16035;53.594;9.952;2023-12-14T12:08:09;6.50;;;3.63;;
28920;SDS011;16035;53.594;9.952;2023-12-14T12:10:10;7.40;;;2.97;;
28920;SDS011;16035;53.594;9.952;2023-12-14T12:12:11;5.93;;;3.65;;
28920;SDS011;16035;53.594;9.952;2023-12-14T12:14:12;9.30;;;3.85;;
28920;SDS011;16035;53.594;9.952;2023-12-14T12:16:13;7.97;;;3.70;;
28920;SDS011;16035;53.594;9.952;2023-12-14T12:18:17;7.17;;;3.47;;
28920;SDS011;16035;53.594;9.952;2023-12-14T12:20:17;12.55;;;3.85;;
28920;SDS011;16035;53.594;9.952;2023-12-14T12:22:18;11.13;;;4.35;;
28920;SDS011;16035;53.594;9.952;2023-12-14T12:24:19;6.03;;;3.63;;
28920;SDS011;16035;53.594;9.952;2023-12-14T12:26:20;8.13;;;3.75;;
28920;SDS011;16035;53.594;9.952;2023-12-14T12:28:20;3.50;;;2.33;;
28920;SDS011;16035;53.594;9.952;2023-12-14T12:30:22;7.75;;;3.17;;
28920;SDS011;16035;53.594;9.952;2023-12-14T12:32:23;7.03;;;3.10;;
28920;SDS011;16035;53.594;9.952;2023-12-14T12:34:23;6.30;;;3.30;;
28920;SDS011;16035;53.594;9.952;2023-12-14T12:36:24;4.90;;;3.07;;
28920;SDS011;16035;53.594;9.952;2023-12-14T12:38:24;5.53;;;3.00;;
28920;SDS011;16035;53.594;9.952;2023-12-14T12:40:24;4.13;;;3.20;;
28920;SDS011;16035;53.594;9.952;2023-12-14T12:42:29;8.15;;;3.55;;